Pagrindinis puslapis
METAR-TAF:

METAR-TAF

Oro uostai :

Kečkemėtas, Vengrija

platuma: 46-55N, ilguma: 019-45E, Aukštis: 113 m

Dabartinis oras

Ataskaita buvo paskelbta 25 minutes, ne 19:45 UTC
Vėjas 2 kt iš Šiaurės Vakarų
Temperatūra 0°C
Drėgmė 100%
Slėgis 1046 hPa
Matomumas: 0350 m
Apsiniaukę ne aukštis 300 ft
rūkas

METAR: LHKE 201945Z 32002KT 0350 FG OVC003 00/00 Q1046 R12/190095 TEMPO 0100 FZFG RMK RED

Laikas: 21:10 (20:10 UTC)

Prognozė

Ataskaita buvo paskelbta 2 valandos ir 18 minutes, ne 17:52 UTC
Prognozė galioja nuo 20 metu 18 UTC su 21 metu 03 UTC
Vėjas 3 kt nuo kintamojo kryptimis
Matomumas: 0600 m
Apsiniaukę ne aukštis 500 ft
įšaldymas rūko
Laikinai
nuo 20 metu 20 UTC su 21 metu 03 UTC
Matomumas: 0350 m
Apsiniaukę ne aukštis 200 ft
įšaldymas rūko
Tikimybė 40% :
Laikinai
nuo 20 metu 22 UTC su 21 metu 03 UTC
Matomumas: 0150 m
ne aukštis 100 ft
įšaldymas rūko

TAF: LHKE 201752Z 2018/2103 VRB03KT 0600 FZFG OVC005 TEMPO 2020/2103 0350 FZFG OVC002 PROB40 TEMPO 2022/2103 0150 FZFG VV001

Orai ataskaitas ir orų prognozės (METAR, TAF).

turimą stotys yra geltonos ir raudonos taškus žemėlapyje.

Perkelti pele per norėdami pamatyti stoties vardą.

Tada spustelėkite, norėdami matyti oro stebėjimo ir prognozės.

Norėdami pakeisti žemėlapį: spustelėkite ant žalios mygtukų su juodo kryžiaus žemyn,; žalią mygtuką su brūkšneliu, jei norite nutolinti; arba žalių rodyklių gretimoms žemėlapius.


METAR-TAF: